createdAt,value
2023-01-29T00:09:40.222Z,103160.00
2023-01-29T00:20:01.976Z,103143.00
2023-01-29T00:30:24.875Z,103141.00
2023-01-29T00:41:03.844Z,103130.00
2023-01-29T00:51:27.328Z,103098.00
2023-01-29T01:02:06.967Z,103087.00
2023-01-29T01:12:30.682Z,103110.00
2023-01-29T01:22:52.423Z,103113.00
2023-01-29T01:33:15.237Z,103114.00
2023-01-29T01:43:55.511Z,103109.00
2023-01-29T01:54:21.711Z,103105.00
2023-01-29T02:05:04.677Z,103110.00
2023-01-29T02:15:27.468Z,103093.00
2023-01-29T02:26:26.479Z,103083.00
2023-01-29T02:36:54.505Z,103067.00
2023-01-29T02:47:21.675Z,103080.00
2023-01-29T02:57:50.517Z,103052.00
2023-01-29T03:08:18.162Z,103039.00
2023-01-29T03:18:46.258Z,103040.00
2023-01-29T03:29:28.539Z,103048.00
2023-01-29T03:39:52.199Z,103032.00
2023-01-29T03:50:28.569Z,103037.00
2023-01-29T04:00:57.398Z,103003.00
2023-01-29T04:11:22.141Z,102977.00
2023-01-29T04:21:48.600Z,102967.00
2023-01-29T04:32:17.526Z,102948.00
2023-01-29T04:42:48.471Z,102922.00
2023-01-29T04:53:18.733Z,102924.00
2023-01-29T05:03:44.283Z,102935.00
2023-01-29T05:14:09.424Z,102930.00
2023-01-29T05:24:32.443Z,102944.00
2023-01-29T05:34:54.101Z,102948.00
2023-01-29T05:45:17.052Z,102956.00
2023-01-29T05:55:38.435Z,102952.00
2023-01-29T06:06:02.867Z,102973.00
2023-01-29T06:16:24.541Z,102986.00
2023-01-29T06:26:47.565Z,102985.00
2023-01-29T06:37:08.971Z,102971.00
2023-01-29T06:47:32.267Z,102967.00
2023-01-29T06:57:54.124Z,102977.00
2023-01-29T07:08:17.195Z,102973.00
2023-01-29T07:18:39.772Z,102968.00
2023-01-29T07:29:03.072Z,102952.00
2023-01-29T07:39:24.874Z,102962.00
2023-01-29T07:49:47.790Z,102937.00
2023-01-29T08:00:11.489Z,102916.00
2023-01-29T08:10:38.122Z,102930.00
2023-01-29T08:21:03.298Z,102907.00
2023-01-29T08:31:27.009Z,102917.00
2023-01-29T08:41:48.654Z,102901.00
2023-01-29T08:52:11.999Z,102898.00
2023-01-29T09:02:33.759Z,102910.00
2023-01-29T09:12:56.951Z,102895.00
2023-01-29T09:23:19.081Z,102886.00
2023-01-29T09:33:41.982Z,102885.00
2023-01-29T09:44:06.951Z,102883.00
2023-01-29T09:54:34.214Z,102850.00
2023-01-29T10:05:09.932Z,102824.00
2023-01-29T10:15:47.609Z,102812.00
2023-01-29T10:26:13.246Z,102778.00
2023-01-29T10:36:39.692Z,102789.00
2023-01-29T10:47:21.604Z,102782.00
2023-01-29T10:58:03.148Z,102749.00
2023-01-29T11:08:30.269Z,102731.00
2023-01-29T11:18:56.986Z,102720.00
2023-01-29T11:29:33.561Z,102693.00
2023-01-29T11:39:56.596Z,102690.00
2023-01-29T11:50:22.855Z,102674.00
2023-01-29T12:00:49.115Z,102664.00
2023-01-29T12:11:14.116Z,102639.00
2023-01-29T12:21:46.259Z,102618.00
2023-01-29T12:32:16.863Z,102599.00
2023-01-29T12:42:42.651Z,102603.00
2023-01-29T12:53:16.253Z,102566.00
2023-01-29T13:03:48.778Z,102582.00
2023-01-29T13:14:18.207Z,102598.00
2023-01-29T13:24:44.369Z,102568.00
2023-01-29T13:35:16.074Z,102564.00
2023-01-29T13:45:48.697Z,102563.00
2023-01-29T13:56:42.736Z,102569.00
2023-01-29T14:07:49.057Z,102556.00
2023-01-29T14:18:20.364Z,102552.00
2023-01-29T14:28:44.405Z,102546.00
2023-01-29T14:39:06.284Z,102537.00
2023-01-29T14:49:57.506Z,102552.00
2023-01-29T15:00:25.958Z,102532.00
2023-01-29T15:11:13.598Z,102519.00
2023-01-29T15:21:35.170Z,102516.00
2023-01-29T15:31:59.011Z,102504.00
2023-01-29T15:42:25.796Z,102488.00
2023-01-29T15:52:53.143Z,102488.00
2023-01-29T16:03:16.054Z,102484.00
2023-01-29T16:13:44.282Z,102458.00
2023-01-29T16:24:10.108Z,102470.00
2023-01-29T16:34:36.172Z,102456.00
2023-01-29T16:45:00.874Z,102450.00
2023-01-29T16:55:25.670Z,102447.00
2023-01-29T17:05:48.294Z,102446.00
2023-01-29T17:16:26.981Z,102438.00
2023-01-29T17:26:49.062Z,102423.00
2023-01-29T17:37:16.380Z,102414.00
2023-01-29T17:47:38.223Z,102400.00
2023-01-29T17:58:01.511Z,102365.00
2023-01-29T18:08:29.658Z,102338.00
2023-01-29T18:18:53.678Z,102325.00
2023-01-29T18:29:15.798Z,102309.00
2023-01-29T18:39:38.950Z,102306.00
2023-01-29T18:50:00.488Z,102282.00
2023-01-29T19:00:24.803Z,102294.00
2023-01-29T19:10:46.602Z,102278.00
2023-01-29T19:21:11.547Z,102258.00
2023-01-29T19:31:33.576Z,102237.00
2023-01-29T19:41:56.630Z,102225.00
2023-01-29T19:52:41.445Z,102199.00
2023-01-29T20:03:12.749Z,102181.00
2023-01-29T20:13:34.894Z,102162.00
2023-01-29T20:23:59.267Z,102151.00
2023-01-29T20:34:21.811Z,102140.00
2023-01-29T20:44:44.811Z,102128.00
2023-01-29T20:55:08.768Z,102104.00
2023-01-29T21:05:32.389Z,102087.00
2023-01-29T21:15:54.317Z,102063.00
2023-01-29T21:26:18.877Z,102055.00
2023-01-29T21:36:41.249Z,102026.00
2023-01-29T21:47:12.367Z,102028.00
2023-01-29T21:57:34.164Z,102000.00
2023-01-29T22:07:57.615Z,101982.00
2023-01-29T22:18:19.853Z,101953.00
2023-01-29T22:28:43.949Z,101950.00
2023-01-29T22:39:06.350Z,101905.00
2023-01-29T22:49:30.365Z,101889.00
2023-01-29T22:59:53.998Z,101881.00
2023-01-29T23:10:18.209Z,101850.00
2023-01-29T23:20:40.206Z,101809.00
2023-01-29T23:31:03.070Z,101812.00
2023-01-29T23:41:24.972Z,101785.00
2023-01-29T23:51:49.969Z,101770.00
